sensor_id;sensor_type;location;lat;lon;timestamp;pressure;altitude;pressure_sealevel;temperature;humidity
12536;BME280;6334;48.696;2.114;2023-04-01T00:00:55;98700.81;;;10.21;78.46
12536;BME280;6334;48.696;2.114;2023-04-01T00:03:26;98701.12;;;10.13;79.02
12536;BME280;6334;48.696;2.114;2023-04-01T00:05:58;98696.17;;;10.29;78.32
12536;BME280;6334;48.696;2.114;2023-04-01T00:08:30;98705.37;;;10.30;78.17
12536;BME280;6334;48.696;2.114;2023-04-01T00:11:00;98706.88;;;10.30;78.63
12536;BME280;6334;48.696;2.114;2023-04-01T00:13:30;98708.42;;;10.14;79.76
12536;BME280;6334;48.696;2.114;2023-04-01T00:16:01;98704.88;;;10.15;78.97
12536;BME280;6334;48.696;2.114;2023-04-01T00:18:31;98716.95;;;10.07;79.63
12536;BME280;6334;48.696;2.114;2023-04-01T00:21:02;98702.66;;;10.20;79.29
12536;BME280;6334;48.696;2.114;2023-04-01T00:23:32;98715.31;;;10.15;79.51
12536;BME280;6334;48.696;2.114;2023-04-01T00:26:03;98709.55;;;10.08;79.67
12536;BME280;6334;48.696;2.114;2023-04-01T00:28:34;98705.89;;;9.99;79.52
12536;BME280;6334;48.696;2.114;2023-04-01T00:31:05;98713.55;;;10.04;79.55
12536;BME280;6334;48.696;2.114;2023-04-01T00:33:34;98712.20;;;10.03;79.43
12536;BME280;6334;48.696;2.114;2023-04-01T00:36:11;98703.36;;;10.31;78.06
12536;BME280;6334;48.696;2.114;2023-04-01T00:38:41;98704.39;;;10.05;79.11
12536;BME280;6334;48.696;2.114;2023-04-01T00:41:12;98703.86;;;10.11;79.27
12536;BME280;6334;48.696;2.114;2023-04-01T00:43:41;98694.00;;;9.83;79.91
12536;BME280;6334;48.696;2.114;2023-04-01T00:46:11;98704.30;;;10.16;78.30
12536;BME280;6334;48.696;2.114;2023-04-01T00:48:44;98697.45;;;10.19;78.26
12536;BME280;6334;48.696;2.114;2023-04-01T00:51:20;98704.11;;;10.19;78.18
12536;BME280;6334;48.696;2.114;2023-04-01T00:53:53;98701.03;;;10.01;78.99
12536;BME280;6334;48.696;2.114;2023-04-01T00:56:35;98689.98;;;10.24;78.08
12536;BME280;6334;48.696;2.114;2023-04-01T00:59:05;98690.89;;;10.09;78.00
12536;BME280;6334;48.696;2.114;2023-04-01T01:01:35;98691.81;;;9.81;79.43
12536;BME280;6334;48.696;2.114;2023-04-01T01:04:05;98690.30;;;10.03;78.85
12536;BME280;6334;48.696;2.114;2023-04-01T01:06:50;98692.88;;;10.15;77.96
12536;BME280;6334;48.696;2.114;2023-04-01T01:14:48;98698.59;;;9.94;78.78
12536;BME280;6334;48.696;2.114;2023-04-01T01:17:36;98701.09;;;10.02;78.74
12536;BME280;6334;48.696;2.114;2023-04-01T01:20:24;98701.34;;;9.99;78.91
12536;BME280;6334;48.696;2.114;2023-04-01T01:22:52;98696.98;;;10.08;78.20
12536;BME280;6334;48.696;2.114;2023-04-01T01:25:28;98695.21;;;9.99;78.72
12536;BME280;6334;48.696;2.114;2023-04-01T01:28:02;98692.23;;;9.87;79.72
12536;BME280;6334;48.696;2.114;2023-04-01T01:33:21;98698.16;;;9.94;79.42
12536;BME280;6334;48.696;2.114;2023-04-01T01:35:49;98704.95;;;10.13;79.24
12536;BME280;6334;48.696;2.114;2023-04-01T01:38:21;98712.14;;;10.09;79.04
12536;BME280;6334;48.696;2.114;2023-04-01T01:40:50;98706.13;;;10.00;79.16
12536;BME280;6334;48.696;2.114;2023-04-01T01:43:24;98700.80;;;10.01;79.06
12536;BME280;6334;48.696;2.114;2023-04-01T01:45:53;98707.75;;;9.91;79.60
12536;BME280;6334;48.696;2.114;2023-04-01T01:48:20;98713.64;;;9.79;79.70
12536;BME280;6334;48.696;2.114;2023-04-01T01:50:49;98714.66;;;9.87;79.45
12536;BME280;6334;48.696;2.114;2023-04-01T01:53:20;98713.78;;;10.08;78.69
12536;BME280;6334;48.696;2.114;2023-04-01T01:55:50;98717.41;;;9.98;78.47
12536;BME280;6334;48.696;2.114;2023-04-01T01:58:36;98721.47;;;10.11;77.97
12536;BME280;6334;48.696;2.114;2023-04-01T02:01:05;98725.70;;;9.98;78.14
12536;BME280;6334;48.696;2.114;2023-04-01T02:03:36;98724.58;;;10.16;77.58
12536;BME280;6334;48.696;2.114;2023-04-01T02:06:10;98727.09;;;9.97;77.43
12536;BME280;6334;48.696;2.114;2023-04-01T02:08:51;98723.00;;;10.13;76.62
12536;BME280;6334;48.696;2.114;2023-04-01T02:11:27;98719.77;;;10.32;75.63
12536;BME280;6334;48.696;2.114;2023-04-01T02:14:16;98727.87;;;10.01;76.75
12536;BME280;6334;48.696;2.114;2023-04-01T02:16:44;98726.91;;;10.13;76.30
12536;BME280;6334;48.696;2.114;2023-04-01T02:19:03;98738.22;;;10.15;76.10
12536;BME280;6334;48.696;2.114;2023-04-01T02:21:33;98736.30;;;10.16;76.16
12536;BME280;6334;48.696;2.114;2023-04-01T02:24:04;98726.55;;;10.25;75.44
12536;BME280;6334;48.696;2.114;2023-04-01T02:26:34;98727.84;;;10.05;76.10
12536;BME280;6334;48.696;2.114;2023-04-01T02:29:05;98734.48;;;10.27;75.62
12536;BME280;6334;48.696;2.114;2023-04-01T02:31:35;98733.10;;;10.09;76.08
12536;BME280;6334;48.696;2.114;2023-04-01T02:34:05;98741.61;;;10.21;75.88
12536;BME280;6334;48.696;2.114;2023-04-01T02:36:36;98733.16;;;10.10;75.38
12536;BME280;6334;48.696;2.114;2023-04-01T02:39:07;98727.89;;;10.14;75.29
12536;BME280;6334;48.696;2.114;2023-04-01T02:41:40;98738.98;;;10.12;75.70
12536;BME280;6334;48.696;2.114;2023-04-01T02:44:11;98736.81;;;10.12;75.39
12536;BME280;6334;48.696;2.114;2023-04-01T02:46:41;98734.33;;;10.32;74.93
12536;BME280;6334;48.696;2.114;2023-04-01T02:49:11;98739.28;;;10.29;75.24
12536;BME280;6334;48.696;2.114;2023-04-01T02:51:41;98728.36;;;10.18;75.44
12536;BME280;6334;48.696;2.114;2023-04-01T02:54:12;98741.56;;;10.22;74.82
12536;BME280;6334;48.696;2.114;2023-04-01T02:56:42;98731.55;;;10.14;75.01
12536;BME280;6334;48.696;2.114;2023-04-01T02:59:13;98747.90;;;10.17;75.21
12536;BME280;6334;48.696;2.114;2023-04-01T03:01:43;98737.50;;;10.03;75.33
12536;BME280;6334;48.696;2.114;2023-04-01T03:04:14;98740.77;;;10.25;74.28
12536;BME280;6334;48.696;2.114;2023-04-01T03:06:44;98747.80;;;10.28;73.92
12536;BME280;6334;48.696;2.114;2023-04-01T03:09:15;98749.59;;;10.29;73.95
12536;BME280;6334;48.696;2.114;2023-04-01T03:11:45;98757.68;;;10.18;74.45
12536;BME280;6334;48.696;2.114;2023-04-01T03:14:15;98756.56;;;10.35;73.76
12536;BME280;6334;48.696;2.114;2023-04-01T03:16:46;98760.55;;;10.29;73.90
12536;BME280;6334;48.696;2.114;2023-04-01T03:19:16;98762.05;;;10.25;73.70
12536;BME280;6334;48.696;2.114;2023-04-01T03:21:47;98760.22;;;10.36;73.43
12536;BME280;6334;48.696;2.114;2023-04-01T03:24:17;98767.14;;;10.38;73.17
12536;BME280;6334;48.696;2.114;2023-04-01T03:26:48;98748.01;;;10.24;73.46
12536;BME280;6334;48.696;2.114;2023-04-01T03:29:18;98758.48;;;10.33;73.54
12536;BME280;6334;48.696;2.114;2023-04-01T03:31:49;98756.19;;;10.20;73.71
12536;BME280;6334;48.696;2.114;2023-04-01T03:34:18;98771.91;;;10.26;73.67
12536;BME280;6334;48.696;2.114;2023-04-01T03:36:49;98771.52;;;10.14;74.44
12536;BME280;6334;48.696;2.114;2023-04-01T03:39:19;98776.56;;;10.35;74.01
12536;BME280;6334;48.696;2.114;2023-04-01T03:41:50;98776.47;;;10.20;73.75
12536;BME280;6334;48.696;2.114;2023-04-01T03:44:20;98779.55;;;10.17;74.15
12536;BME280;6334;48.696;2.114;2023-04-01T03:46:50;98778.13;;;10.29;73.92
12536;BME280;6334;48.696;2.114;2023-04-01T03:49:20;98770.34;;;10.34;73.47
12536;BME280;6334;48.696;2.114;2023-04-01T03:51:51;98768.22;;;10.26;73.22
12536;BME280;6334;48.696;2.114;2023-04-01T03:54:21;98779.94;;;10.29;73.42
12536;BME280;6334;48.696;2.114;2023-04-01T03:56:51;98772.23;;;10.12;73.82
12536;BME280;6334;48.696;2.114;2023-04-01T03:59:22;98777.20;;;10.45;72.46
12536;BME280;6334;48.696;2.114;2023-04-01T04:01:52;98779.08;;;10.08;73.91
12536;BME280;6334;48.696;2.114;2023-04-01T04:04:23;98770.66;;;10.17;73.52
12536;BME280;6334;48.696;2.114;2023-04-01T04:06:53;98773.49;;;10.25;72.84
12536;BME280;6334;48.696;2.114;2023-04-01T04:09:24;98792.20;;;10.05;73.72
12536;BME280;6334;48.696;2.114;2023-04-01T04:11:54;98784.36;;;10.37;72.78
12536;BME280;6334;48.696;2.114;2023-04-01T04:14:24;98778.66;;;10.22;72.86
12536;BME280;6334;48.696;2.114;2023-04-01T04:16:54;98785.44;;;10.18;73.12
12536;BME280;6334;48.696;2.114;2023-04-01T04:19:25;98789.13;;;10.34;72.48
12536;BME280;6334;48.696;2.114;2023-04-01T04:21:55;98792.55;;;10.14;72.63
12536;BME280;6334;48.696;2.114;2023-04-01T04:24:26;98794.02;;;10.09;72.83
12536;BME280;6334;48.696;2.114;2023-04-01T04:26:55;98797.56;;;10.16;73.03
12536;BME280;6334;48.696;2.114;2023-04-01T04:29:26;98803.23;;;10.15;72.53
12536;BME280;6334;48.696;2.114;2023-04-01T04:31:57;98808.47;;;10.11;73.45
12536;BME280;6334;48.696;2.114;2023-04-01T04:34:27;98803.42;;;10.28;72.97
12536;BME280;6334;48.696;2.114;2023-04-01T04:36:58;98798.63;;;10.14;73.93
12536;BME280;6334;48.696;2.114;2023-04-01T04:39:28;98807.45;;;10.01;73.85
12536;BME280;6334;48.696;2.114;2023-04-01T04:41:59;98808.98;;;10.14;73.15
12536;BME280;6334;48.696;2.114;2023-04-01T04:44:29;98802.63;;;10.04;73.61
12536;BME280;6334;48.696;2.114;2023-04-01T04:47:00;98814.03;;;10.15;73.02
12536;BME280;6334;48.696;2.114;2023-04-01T04:49:30;98813.09;;;10.10;72.90
12536;BME280;6334;48.696;2.114;2023-04-01T04:52:00;98819.31;;;9.93;73.76
12536;BME280;6334;48.696;2.114;2023-04-01T04:54:30;98814.97;;;10.17;72.82
12536;BME280;6334;48.696;2.114;2023-04-01T04:57:01;98816.91;;;10.08;73.37
12536;BME280;6334;48.696;2.114;2023-04-01T04:59:30;98827.44;;;10.11;72.94
12536;BME280;6334;48.696;2.114;2023-04-01T05:02:01;98831.70;;;10.31;72.88
12536;BME280;6334;48.696;2.114;2023-04-01T05:04:34;98823.11;;;10.00;73.74
12536;BME280;6334;48.696;2.114;2023-04-01T05:07:02;98831.07;;;10.06;74.03
12536;BME280;6334;48.696;2.114;2023-04-01T05:09:32;98826.09;;;10.14;73.57
12536;BME280;6334;48.696;2.114;2023-04-01T05:12:03;98830.20;;;10.04;74.01
12536;BME280;6334;48.696;2.114;2023-04-01T05:14:33;98834.63;;;9.99;74.29
12536;BME280;6334;48.696;2.114;2023-04-01T05:17:03;98835.06;;;10.01;74.62
12536;BME280;6334;48.696;2.114;2023-04-01T05:19:34;98833.63;;;10.04;74.14
12536;BME280;6334;48.696;2.114;2023-04-01T05:22:06;98839.17;;;10.02;74.33
12536;BME280;6334;48.696;2.114;2023-04-01T05:24:36;98830.19;;;9.99;74.54
12536;BME280;6334;48.696;2.114;2023-04-01T05:27:07;98833.92;;;10.02;74.73
12536;BME280;6334;48.696;2.114;2023-04-01T05:29:37;98833.03;;;10.04;74.75
12536;BME280;6334;48.696;2.114;2023-04-01T05:32:07;98828.19;;;10.03;74.75
12536;BME280;6334;48.696;2.114;2023-04-01T05:34:37;98826.30;;;9.96;75.04
12536;BME280;6334;48.696;2.114;2023-04-01T05:37:07;98834.28;;;9.87;75.27
12536;BME280;6334;48.696;2.114;2023-04-01T05:39:38;98834.92;;;9.79;75.42
12536;BME280;6334;48.696;2.114;2023-04-01T05:42:08;98833.16;;;9.89;74.89
12536;BME280;6334;48.696;2.114;2023-04-01T05:44:39;98830.54;;;9.72;75.43
12536;BME280;6334;48.696;2.114;2023-04-01T05:47:09;98836.86;;;10.14;73.84
12536;BME280;6334;48.696;2.114;2023-04-01T05:49:40;98844.60;;;9.95;74.29
12536;BME280;6334;48.696;2.114;2023-04-01T05:52:10;98851.48;;;9.87;74.17
12536;BME280;6334;48.696;2.114;2023-04-01T05:54:41;98860.31;;;10.03;73.70
12536;BME280;6334;48.696;2.114;2023-04-01T05:57:11;98866.77;;;9.93;73.66
12536;BME280;6334;48.696;2.114;2023-04-01T05:59:41;98867.88;;;10.01;73.35
12536;BME280;6334;48.696;2.114;2023-04-01T06:02:10;98862.64;;;10.06;72.66
12536;BME280;6334;48.696;2.114;2023-04-01T06:04:41;98865.52;;;10.10;72.20
12536;BME280;6334;48.696;2.114;2023-04-01T06:07:16;98879.52;;;10.12;72.07
12536;BME280;6334;48.696;2.114;2023-04-01T06:09:45;98874.53;;;9.89;72.89
12536;BME280;6334;48.696;2.114;2023-04-01T06:15:34;98885.27;;;10.05;72.20
12536;BME280;6334;48.696;2.114;2023-04-01T06:20:57;98897.34;;;10.08;72.42
12536;BME280;6334;48.696;2.114;2023-04-01T06:26:23;98893.63;;;10.27;73.10
12536;BME280;6334;48.696;2.114;2023-04-01T06:34:52;98905.05;;;10.05;74.78
12536;BME280;6334;48.696;2.114;2023-04-01T06:37:43;98906.46;;;9.91;75.36
12536;BME280;6334;48.696;2.114;2023-04-01T06:40:16;98910.75;;;10.18;74.48
12536;BME280;6334;48.696;2.114;2023-04-01T06:42:50;98913.89;;;10.07;75.37
12536;BME280;6334;48.696;2.114;2023-04-01T06:45:26;98916.25;;;10.06;75.45
12536;BME280;6334;48.696;2.114;2023-04-01T06:48:05;98916.89;;;10.16;75.19
12536;BME280;6334;48.696;2.114;2023-04-01T06:50:56;98924.23;;;10.11;75.23
12536;BME280;6334;48.696;2.114;2023-04-01T06:53:37;98927.31;;;9.96;75.11
12536;BME280;6334;48.696;2.114;2023-04-01T06:56:26;98929.47;;;10.00;75.77
12536;BME280;6334;48.696;2.114;2023-04-01T06:58:39;98929.38;;;9.85;75.73
12536;BME280;6334;48.696;2.114;2023-04-01T07:01:10;98940.79;;;9.96;75.77
12536;BME280;6334;48.696;2.114;2023-04-01T07:03:49;98929.50;;;9.80;76.09
12536;BME280;6334;48.696;2.114;2023-04-01T07:06:23;98938.45;;;9.87;76.30
12536;BME280;6334;48.696;2.114;2023-04-01T07:08:45;98944.65;;;10.01;75.70
12536;BME280;6334;48.696;2.114;2023-04-01T07:11:23;98941.86;;;10.03;75.47
12536;BME280;6334;48.696;2.114;2023-04-01T07:13:49;98929.23;;;9.97;75.43
12536;BME280;6334;48.696;2.114;2023-04-01T07:19:09;98950.02;;;9.92;75.43
12536;BME280;6334;48.696;2.114;2023-04-01T07:21:44;98956.02;;;9.92;75.36
12536;BME280;6334;48.696;2.114;2023-04-01T07:24:29;98947.36;;;9.99;75.50
12536;BME280;6334;48.696;2.114;2023-04-01T07:26:57;98944.16;;;10.15;74.54
12536;BME280;6334;48.696;2.114;2023-04-01T07:29:27;98951.70;;;10.10;75.13
12536;BME280;6334;48.696;2.114;2023-04-01T07:32:32;98948.88;;;10.14;73.71
12536;BME280;6334;48.696;2.114;2023-04-01T07:35:20;98947.56;;;10.16;74.19
12536;BME280;6334;48.696;2.114;2023-04-01T07:40:45;98943.56;;;10.33;72.99
12536;BME280;6334;48.696;2.114;2023-04-01T07:43:18;98946.31;;;10.34;72.04
12536;BME280;6334;48.696;2.114;2023-04-01T07:46:14;98952.59;;;10.54;70.56
12536;BME280;6334;48.696;2.114;2023-04-01T07:51:24;98959.22;;;10.45;69.25
12536;BME280;6334;48.696;2.114;2023-04-01T07:56:41;98961.05;;;10.45;69.00
12536;BME280;6334;48.696;2.114;2023-04-01T07:59:15;98955.60;;;10.64;68.36
12536;BME280;6334;48.696;2.114;2023-04-01T08:10:34;98973.34;;;10.91;66.13
12536;BME280;6334;48.696;2.114;2023-04-01T08:16:07;98975.10;;;10.55;66.86
12536;BME280;6334;48.696;2.114;2023-04-01T08:18:40;98981.75;;;11.05;66.83
12536;BME280;6334;48.696;2.114;2023-04-01T08:21:13;98980.78;;;11.06;67.44
12536;BME280;6334;48.696;2.114;2023-04-01T08:23:52;98975.60;;;10.99;68.45
12536;BME280;6334;48.696;2.114;2023-04-01T08:28:56;98979.92;;;11.36;67.24
12536;BME280;6334;48.696;2.114;2023-04-01T08:33:56;98973.09;;;11.21;66.97
12536;BME280;6334;48.696;2.114;2023-04-01T08:36:33;98978.87;;;11.44;66.53
12536;BME280;6334;48.696;2.114;2023-04-01T08:55:56;98979.04;;;11.35;66.28
12536;BME280;6334;48.696;2.114;2023-04-01T09:01:20;98970.88;;;11.33;65.69
12536;BME280;6334;48.696;2.114;2023-04-01T09:04:25;98981.31;;;11.38;65.73
12536;BME280;6334;48.696;2.114;2023-04-01T09:10:12;98987.05;;;11.63;66.10
12536;BME280;6334;48.696;2.114;2023-04-01T09:13:08;98977.04;;;11.22;66.53
12536;BME280;6334;48.696;2.114;2023-04-01T09:15:37;98989.45;;;11.59;66.24
12536;BME280;6334;48.696;2.114;2023-04-01T09:23:55;98978.22;;;11.91;63.70
12536;BME280;6334;48.696;2.114;2023-04-01T09:26:33;98985.41;;;11.95;64.23
12536;BME280;6334;48.696;2.114;2023-04-01T09:40:13;98992.86;;;12.02;64.06
12536;BME280;6334;48.696;2.114;2023-04-01T09:53:50;98971.96;;;12.28;60.55
12536;BME280;6334;48.696;2.114;2023-04-01T09:59:13;98981.18;;;12.62;59.73
12536;BME280;6334;48.696;2.114;2023-04-01T10:10:18;99002.36;;;12.61;56.93
12536;BME280;6334;48.696;2.114;2023-04-01T10:12:49;98993.23;;;12.32;57.10
12536;BME280;6334;48.696;2.114;2023-04-01T10:24:19;98993.55;;;13.08;56.49
12536;BME280;6334;48.696;2.114;2023-04-01T10:40:03;98989.64;;;13.19;55.53
12536;BME280;6334;48.696;2.114;2023-04-01T10:45:43;98992.05;;;13.43;53.32
12536;BME280;6334;48.696;2.114;2023-04-01T10:56:51;98992.69;;;13.78;54.73
12536;BME280;6334;48.696;2.114;2023-04-01T11:10:57;98979.55;;;13.36;53.69
12536;BME280;6334;48.696;2.114;2023-04-01T11:13:35;98968.67;;;13.71;53.50
12536;BME280;6334;48.696;2.114;2023-04-01T11:30:04;98979.52;;;13.57;54.55
12536;BME280;6334;48.696;2.114;2023-04-01T11:46:12;98966.55;;;14.43;52.20
12536;BME280;6334;48.696;2.114;2023-04-01T11:51:30;98974.38;;;14.10;50.19
12536;BME280;6334;48.696;2.114;2023-04-01T12:00:00;98975.73;;;13.92;51.83
12536;BME280;6334;48.696;2.114;2023-04-01T12:05:21;98984.61;;;13.59;52.71
12536;BME280;6334;48.696;2.114;2023-04-01T12:10:39;98980.33;;;14.27;56.30
12536;BME280;6334;48.696;2.114;2023-04-01T12:13:12;98976.33;;;14.42;55.00
12536;BME280;6334;48.696;2.114;2023-04-01T12:30:06;98963.70;;;14.30;50.34
12536;BME280;6334;48.696;2.114;2023-04-01T12:46:29;98967.61;;;14.53;45.54
12536;BME280;6334;48.696;2.114;2023-04-01T12:54:36;98975.09;;;14.77;49.25
12536;BME280;6334;48.696;2.114;2023-04-01T13:03:20;98976.55;;;14.89;50.03
12536;BME280;6334;48.696;2.114;2023-04-01T13:08:16;98980.47;;;13.97;51.29
12536;BME280;6334;48.696;2.114;2023-04-01T13:16:19;98978.47;;;14.06;52.17
12536;BME280;6334;48.696;2.114;2023-04-01T13:18:58;98967.34;;;14.00;52.37
12536;BME280;6334;48.696;2.114;2023-04-01T13:24:24;98966.53;;;14.46;51.87
12536;BME280;6334;48.696;2.114;2023-04-01T13:26:58;98967.89;;;14.56;52.13
12536;BME280;6334;48.696;2.114;2023-04-01T13:35:23;98986.83;;;14.12;53.92
12536;BME280;6334;48.696;2.114;2023-04-01T13:37:42;99008.08;;;13.70;58.08
12536;BME280;6334;48.696;2.114;2023-04-01T13:40:30;99003.67;;;13.71;56.96
12536;BME280;6334;48.696;2.114;2023-04-01T13:43:57;99002.33;;;13.49;57.61
12536;BME280;6334;48.696;2.114;2023-04-01T13:51:20;98995.22;;;14.29;54.64
12536;BME280;6334;48.696;2.114;2023-04-01T14:02:15;99004.42;;;13.80;56.30
12536;BME280;6334;48.696;2.114;2023-04-01T14:10:19;98999.20;;;13.67;56.43
12536;BME280;6334;48.696;2.114;2023-04-01T14:15:28;99000.01;;;13.73;55.58
12536;BME280;6334;48.696;2.114;2023-04-01T14:24:02;98997.97;;;14.21;51.75
12536;BME280;6334;48.696;2.114;2023-04-01T14:29:34;98984.73;;;14.33;52.29
12536;BME280;6334;48.696;2.114;2023-04-01T14:32:12;98991.81;;;14.49;52.46
12536;BME280;6334;48.696;2.114;2023-04-01T14:37:48;98985.16;;;14.29;53.73
12536;BME280;6334;48.696;2.114;2023-04-01T14:40:26;98998.34;;;14.51;53.51
12536;BME280;6334;48.696;2.114;2023-04-01T14:48:38;99003.55;;;14.04;56.59
12536;BME280;6334;48.696;2.114;2023-04-01T14:54:19;99019.73;;;13.63;58.52
12536;BME280;6334;48.696;2.114;2023-04-01T14:56:41;99025.34;;;13.42;59.14
12536;BME280;6334;48.696;2.114;2023-04-01T14:59:13;99021.43;;;13.21;60.01
12536;BME280;6334;48.696;2.114;2023-04-01T15:01:59;99033.15;;;13.74;58.84
12536;BME280;6334;48.696;2.114;2023-04-01T15:07:21;99035.79;;;13.85;59.29
12536;BME280;6334;48.696;2.114;2023-04-01T15:12:58;99045.63;;;13.82;59.37
12536;BME280;6334;48.696;2.114;2023-04-01T15:15:34;99050.27;;;13.68;60.40
12536;BME280;6334;48.696;2.114;2023-04-01T15:18:09;99051.80;;;13.74;59.64
12536;BME280;6334;48.696;2.114;2023-04-01T15:23:43;99047.72;;;13.77;56.50
12536;BME280;6334;48.696;2.114;2023-04-01T15:31:47;99050.41;;;14.02;54.57
12536;BME280;6334;48.696;2.114;2023-04-01T15:40:08;99061.97;;;13.70;54.94
12536;BME280;6334;48.696;2.114;2023-04-01T15:42:48;99062.45;;;13.52;54.03
12536;BME280;6334;48.696;2.114;2023-04-01T15:53:45;99068.55;;;13.78;53.67
12536;BME280;6334;48.696;2.114;2023-04-01T15:56:38;99066.88;;;13.28;53.59
12536;BME280;6334;48.696;2.114;2023-04-01T16:05:07;99078.31;;;13.44;56.14
12536;BME280;6334;48.696;2.114;2023-04-01T16:07:55;99087.58;;;13.21;56.04
12536;BME280;6334;48.696;2.114;2023-04-01T16:10:29;99094.95;;;13.10;58.54
12536;BME280;6334;48.696;2.114;2023-04-01T16:13:24;99105.55;;;13.21;60.16
12536;BME280;6334;48.696;2.114;2023-04-01T16:16:09;99105.75;;;13.25;61.13
12536;BME280;6334;48.696;2.114;2023-04-01T16:19:07;99111.51;;;12.93;61.03
12536;BME280;6334;48.696;2.114;2023-04-01T16:21:36;99108.45;;;13.04;61.87
12536;BME280;6334;48.696;2.114;2023-04-01T16:24:13;99117.89;;;12.97;61.57
12536;BME280;6334;48.696;2.114;2023-04-01T16:26:53;99126.57;;;12.85;61.38
12536;BME280;6334;48.696;2.114;2023-04-01T16:29:27;99128.25;;;12.78;62.69
12536;BME280;6334;48.696;2.114;2023-04-01T16:32:13;99129.67;;;12.68;63.12
12536;BME280;6334;48.696;2.114;2023-04-01T16:34:38;99131.03;;;12.73;62.61
12536;BME280;6334;48.696;2.114;2023-04-01T16:37:41;99139.15;;;12.65;63.04
12536;BME280;6334;48.696;2.114;2023-04-01T16:42:38;99148.83;;;12.82;62.68
12536;BME280;6334;48.696;2.114;2023-04-01T16:47:37;99166.31;;;12.78;63.13
12536;BME280;6334;48.696;2.114;2023-04-01T16:55:50;99179.53;;;11.94;68.01
12536;BME280;6334;48.696;2.114;2023-04-01T16:58:22;99171.52;;;12.35;67.41
12536;BME280;6334;48.696;2.114;2023-04-01T17:00:49;99189.11;;;11.84;68.65
12536;BME280;6334;48.696;2.114;2023-04-01T17:03:22;99191.81;;;11.86;70.78
12536;BME280;6334;48.696;2.114;2023-04-01T17:06:15;99190.64;;;12.13;70.18
12536;BME280;6334;48.696;2.114;2023-04-01T17:11:38;99196.08;;;11.92;70.98
12536;BME280;6334;48.696;2.114;2023-04-01T17:16:52;99204.56;;;11.70;72.58
12536;BME280;6334;48.696;2.114;2023-04-01T17:30:17;99213.97;;;11.86;71.92
12536;BME280;6334;48.696;2.114;2023-04-01T17:32:58;99216.03;;;12.07;69.99
12536;BME280;6334;48.696;2.114;2023-04-01T17:41:36;99222.00;;;11.57;72.43
12536;BME280;6334;48.696;2.114;2023-04-01T17:47:01;99228.02;;;11.59;72.55
12536;BME280;6334;48.696;2.114;2023-04-01T17:49:39;99235.52;;;11.76;71.33
12536;BME280;6334;48.696;2.114;2023-04-01T17:52:27;99247.02;;;12.08;69.34
12536;BME280;6334;48.696;2.114;2023-04-01T17:57:54;99251.75;;;11.48;71.73
12536;BME280;6334;48.696;2.114;2023-04-01T18:00:38;99259.77;;;11.51;72.75
12536;BME280;6334;48.696;2.114;2023-04-01T18:03:29;99258.91;;;11.35;74.46
12536;BME280;6334;48.696;2.114;2023-04-01T18:08:40;99264.59;;;11.53;72.60
12536;BME280;6334;48.696;2.114;2023-04-01T18:11:16;99275.95;;;11.70;72.71
12536;BME280;6334;48.696;2.114;2023-04-01T18:14:29;99280.16;;;11.56;72.50
12536;BME280;6334;48.696;2.114;2023-04-01T18:16:34;99282.20;;;11.55;72.02
12536;BME280;6334;48.696;2.114;2023-04-01T18:23:03;99288.19;;;11.28;73.62
12536;BME280;6334;48.696;2.114;2023-04-01T18:24:56;99290.81;;;11.35;73.06
12536;BME280;6334;48.696;2.114;2023-04-01T18:28:14;99303.61;;;11.52;71.98
12536;BME280;6334;48.696;2.114;2023-04-01T18:30:11;99302.80;;;11.64;72.60
12536;BME280;6334;48.696;2.114;2023-04-01T18:33:03;99309.05;;;11.33;73.46
12536;BME280;6334;48.696;2.114;2023-04-01T18:35:50;99310.95;;;11.46;73.51
12536;BME280;6334;48.696;2.114;2023-04-01T18:38:33;99325.19;;;11.34;72.76
12536;BME280;6334;48.696;2.114;2023-04-01T18:41:13;99317.42;;;11.33;73.41
12536;BME280;6334;48.696;2.114;2023-04-01T18:44:03;99324.38;;;11.41;73.63
12536;BME280;6334;48.696;2.114;2023-04-01T18:49:45;99340.32;;;11.21;74.09
12536;BME280;6334;48.696;2.114;2023-04-01T18:52:47;99346.36;;;11.06;74.31
12536;BME280;6334;48.696;2.114;2023-04-01T18:57:50;99350.19;;;11.52;71.70
12536;BME280;6334;48.696;2.114;2023-04-01T19:00:20;99360.13;;;11.44;72.96
12536;BME280;6334;48.696;2.114;2023-04-01T19:03:02;99358.22;;;11.44;73.28
12536;BME280;6334;48.696;2.114;2023-04-01T19:05:32;99368.22;;;11.51;73.41
12536;BME280;6334;48.696;2.114;2023-04-01T19:08:30;99370.94;;;11.26;73.54
12536;BME280;6334;48.696;2.114;2023-04-01T19:11:18;99367.94;;;11.22;73.38
12536;BME280;6334;48.696;2.114;2023-04-01T19:19:29;99390.50;;;11.52;72.09
12536;BME280;6334;48.696;2.114;2023-04-01T19:21:56;99393.13;;;11.40;73.08
12536;BME280;6334;48.696;2.114;2023-04-01T19:24:44;99392.41;;;11.19;73.51
12536;BME280;6334;48.696;2.114;2023-04-01T19:30:02;99399.89;;;11.43;72.83
12536;BME280;6334;48.696;2.114;2023-04-01T19:32:36;99397.80;;;11.33;73.10
12536;BME280;6334;48.696;2.114;2023-04-01T19:38:19;99403.20;;;10.99;74.10
12536;BME280;6334;48.696;2.114;2023-04-01T19:40:57;99412.46;;;11.10;73.38
12536;BME280;6334;48.696;2.114;2023-04-01T19:43:30;99418.88;;;10.92;74.60
12536;BME280;6334;48.696;2.114;2023-04-01T19:57:50;99426.03;;;11.09;74.02
12536;BME280;6334;48.696;2.114;2023-04-01T20:00:34;99434.63;;;11.29;72.83
12536;BME280;6334;48.696;2.114;2023-04-01T20:06:43;99435.92;;;10.95;74.34
12536;BME280;6334;48.696;2.114;2023-04-01T20:14:54;99450.77;;;11.09;73.49
12536;BME280;6334;48.696;2.114;2023-04-01T20:17:26;99456.80;;;11.11;74.01
12536;BME280;6334;48.696;2.114;2023-04-01T20:25:23;99469.80;;;10.99;73.59
12536;BME280;6334;48.696;2.114;2023-04-01T20:28:13;99479.47;;;11.20;72.82
12536;BME280;6334;48.696;2.114;2023-04-01T20:36:16;99493.59;;;11.39;72.37
12536;BME280;6334;48.696;2.114;2023-04-01T20:45:17;99512.91;;;11.00;74.29
12536;BME280;6334;48.696;2.114;2023-04-01T20:50:51;99514.19;;;11.02;75.14
12536;BME280;6334;48.696;2.114;2023-04-01T20:58:53;99524.23;;;10.95;74.13
12536;BME280;6334;48.696;2.114;2023-04-01T21:01:35;99520.89;;;10.84;75.09
12536;BME280;6334;48.696;2.114;2023-04-01T21:04:21;99523.02;;;10.94;73.95
12536;BME280;6334;48.696;2.114;2023-04-01T21:07:01;99518.95;;;10.86;74.13
12536;BME280;6334;48.696;2.114;2023-04-01T21:09:43;99528.79;;;10.88;73.86
12536;BME280;6334;48.696;2.114;2023-04-01T21:12:15;99531.59;;;10.94;73.68